createdAt,value
2022-12-29T00:00:08.412Z,3.43
2022-12-29T00:02:35.819Z,3.50
2022-12-29T00:05:03.635Z,3.30
2022-12-29T00:07:30.766Z,3.33
2022-12-29T00:09:57.959Z,3.23
2022-12-29T00:12:25.095Z,2.90
2022-12-29T00:15:11.089Z,3.00
2022-12-29T00:17:38.211Z,2.97
2022-12-29T00:20:24.559Z,2.87
2022-12-29T00:23:10.500Z,2.83
2022-12-29T00:25:56.568Z,2.80
2022-12-29T00:28:42.471Z,2.77
2022-12-29T00:31:31.818Z,2.70
2022-12-29T00:34:18.189Z,2.90
2022-12-29T00:36:45.812Z,2.87
2022-12-29T00:39:37.305Z,2.83
2022-12-29T00:42:26.664Z,2.90
2022-12-29T00:44:54.083Z,2.70
2022-12-29T00:47:21.246Z,2.60
2022-12-29T00:49:48.507Z,2.50
2022-12-29T00:52:15.823Z,2.30
2022-12-29T00:54:45.923Z,2.30
2022-12-29T00:57:13.497Z,2.43
2022-12-29T00:59:41.416Z,2.10
2022-12-29T01:02:08.900Z,2.30
2022-12-29T01:04:36.582Z,2.40
2022-12-29T01:07:03.783Z,2.30
2022-12-29T01:09:49.719Z,2.20
2022-12-29T01:12:16.864Z,2.40
2022-12-29T01:14:45.463Z,2.10
2022-12-29T01:17:12.778Z,2.50
2022-12-29T01:19:39.957Z,2.67
2022-12-29T01:22:07.194Z,2.93
2022-12-29T01:24:34.480Z,3.10
2022-12-29T01:27:01.607Z,3.30
2022-12-29T01:29:28.755Z,3.50
2022-12-29T01:31:55.940Z,3.90
2022-12-29T01:34:23.370Z,3.93
2022-12-29T01:36:50.578Z,4.63
2022-12-29T01:39:18.579Z,5.13
2022-12-29T01:41:45.731Z,5.10
2022-12-29T01:44:31.853Z,5.30
2022-12-29T01:46:59.048Z,4.50
2022-12-29T01:49:28.744Z,4.87
2022-12-29T01:51:58.028Z,4.33
2022-12-29T01:54:31.109Z,4.97
2022-12-29T01:57:00.918Z,4.30
2022-12-29T01:59:29.984Z,4.10
2022-12-29T02:01:57.432Z,4.20
2022-12-29T02:04:26.605Z,3.43
2022-12-29T02:06:57.348Z,3.53
2022-12-29T02:09:25.148Z,3.13
2022-12-29T02:11:52.825Z,3.30
2022-12-29T02:14:20.103Z,3.27
2022-12-29T02:16:53.320Z,3.30
2022-12-29T02:19:23.221Z,3.67
2022-12-29T02:21:53.187Z,3.40
2022-12-29T02:24:23.546Z,3.77
2022-12-29T02:27:09.245Z,3.50
2022-12-29T02:29:56.762Z,3.50
2022-12-29T02:32:32.754Z,3.33
2022-12-29T02:34:59.891Z,3.17
2022-12-29T02:37:30.616Z,3.10
2022-12-29T02:40:00.893Z,2.80
2022-12-29T02:42:37.023Z,3.07
2022-12-29T02:45:07.267Z,2.40
2022-12-29T02:47:53.305Z,2.30
2022-12-29T02:50:40.933Z,2.00
2022-12-29T02:53:38.982Z,2.43
2022-12-29T02:56:06.361Z,2.10
2022-12-29T02:58:33.490Z,1.80
2022-12-29T03:01:12.464Z,1.87
2022-12-29T03:03:58.547Z,2.00
2022-12-29T03:06:43.592Z,1.67
2022-12-29T03:09:22.627Z,1.60
2022-12-29T03:12:16.229Z,1.40
2022-12-29T03:15:09.392Z,1.33
2022-12-29T03:17:39.290Z,1.40
2022-12-29T03:20:09.272Z,1.60
2022-12-29T03:22:38.543Z,1.50
2022-12-29T03:25:05.888Z,1.50
2022-12-29T03:27:36.120Z,1.47
2022-12-29T03:30:04.920Z,1.50
2022-12-29T03:32:37.183Z,1.40
2022-12-29T03:35:05.082Z,1.50
2022-12-29T03:37:43.290Z,1.40
2022-12-29T03:40:10.876Z,1.30
2022-12-29T03:42:38.813Z,1.53
2022-12-29T03:45:06.403Z,1.17
2022-12-29T03:47:33.694Z,0.90
2022-12-29T03:50:01.201Z,1.10
2022-12-29T03:52:28.449Z,1.10
2022-12-29T03:54:55.583Z,1.13
2022-12-29T03:57:22.738Z,1.00
2022-12-29T03:59:50.080Z,1.00
2022-12-29T04:02:17.638Z,0.73
2022-12-29T04:04:45.672Z,0.80
2022-12-29T04:07:12.927Z,0.90
2022-12-29T04:09:40.068Z,0.70
2022-12-29T04:12:07.261Z,0.70
2022-12-29T04:14:34.558Z,0.70
2022-12-29T04:17:01.764Z,0.63
2022-12-29T04:19:28.872Z,0.60
2022-12-29T04:21:56.082Z,0.60
2022-12-29T04:24:23.286Z,0.50
2022-12-29T04:26:50.432Z,0.70
2022-12-29T04:29:17.587Z,0.50
2022-12-29T04:31:44.893Z,0.53
2022-12-29T04:34:12.219Z,0.70
2022-12-29T04:36:40.611Z,0.80
2022-12-29T04:39:08.374Z,1.20
2022-12-29T04:41:35.688Z,1.20
2022-12-29T04:44:02.891Z,1.47
2022-12-29T04:46:30.134Z,1.53
2022-12-29T04:48:57.427Z,1.63
2022-12-29T04:51:24.584Z,2.07
2022-12-29T04:53:51.741Z,2.40
2022-12-29T04:56:18.941Z,2.30
2022-12-29T04:58:46.285Z,2.37
2022-12-29T05:01:13.543Z,2.50
2022-12-29T05:03:41.388Z,2.67
2022-12-29T05:06:09.046Z,3.00
2022-12-29T05:08:36.197Z,3.13
2022-12-29T05:11:03.327Z,3.90
2022-12-29T05:13:30.490Z,4.07
2022-12-29T05:15:57.700Z,4.30
2022-12-29T05:18:24.989Z,4.70
2022-12-29T05:20:52.396Z,4.43
2022-12-29T05:23:19.609Z,4.50
2022-12-29T05:25:46.751Z,3.93
2022-12-29T05:28:14.291Z,4.83
2022-12-29T05:30:41.736Z,4.03
2022-12-29T05:33:12.432Z,3.60
2022-12-29T05:35:39.618Z,3.13
2022-12-29T05:38:06.819Z,2.60
2022-12-29T05:40:34.801Z,2.80
2022-12-29T05:43:01.944Z,3.00
2022-12-29T05:45:29.085Z,3.53
2022-12-29T05:47:56.370Z,3.40
2022-12-29T05:50:23.549Z,4.13
2022-12-29T05:52:50.739Z,4.70
2022-12-29T05:55:17.888Z,4.77
2022-12-29T05:57:45.933Z,4.53
2022-12-29T06:00:13.406Z,4.90
2022-12-29T06:02:40.658Z,4.47
2022-12-29T06:05:08.077Z,5.33
2022-12-29T06:07:35.291Z,4.93
2022-12-29T06:10:02.468Z,6.83
2022-12-29T06:12:29.676Z,7.97
2022-12-29T06:14:56.953Z,8.40
2022-12-29T06:17:24.091Z,9.73
2022-12-29T06:19:51.285Z,8.73
2022-12-29T06:22:18.475Z,9.70
2022-12-29T06:24:45.715Z,10.23
2022-12-29T06:27:12.977Z,10.17
2022-12-29T06:29:41.781Z,10.57
2022-12-29T06:32:09.008Z,8.33
2022-12-29T06:34:36.233Z,9.57
2022-12-29T06:37:03.556Z,10.10
2022-12-29T06:39:30.700Z,9.40
2022-12-29T06:41:57.880Z,9.27
2022-12-29T06:44:25.215Z,8.47
2022-12-29T06:46:52.357Z,7.83
2022-12-29T06:49:19.520Z,5.90
2022-12-29T06:51:46.710Z,4.80
2022-12-29T06:54:13.915Z,3.67
2022-12-29T06:56:41.389Z,4.00
2022-12-29T06:59:08.605Z,4.07
2022-12-29T07:01:37.019Z,3.80
2022-12-29T07:04:04.890Z,3.50
2022-12-29T07:06:32.046Z,3.57
2022-12-29T07:08:59.305Z,3.87
2022-12-29T07:11:26.534Z,3.37
2022-12-29T07:13:53.735Z,3.90
2022-12-29T07:16:21.281Z,4.03
2022-12-29T07:18:48.600Z,4.33
2022-12-29T07:21:15.871Z,4.50
2022-12-29T07:23:43.291Z,4.80
2022-12-29T07:26:13.072Z,5.00
2022-12-29T07:28:40.299Z,6.87
2022-12-29T07:31:08.091Z,7.03
2022-12-29T07:33:35.540Z,8.30
2022-12-29T07:36:02.695Z,6.57
2022-12-29T07:38:30.140Z,9.20
2022-12-29T07:41:00.594Z,8.43
2022-12-29T07:43:27.800Z,7.83
2022-12-29T07:45:55.184Z,7.13
2022-12-29T07:48:22.650Z,7.77
2022-12-29T07:50:49.890Z,6.73
2022-12-29T07:53:17.049Z,6.87
2022-12-29T07:55:44.184Z,6.93
2022-12-29T07:58:11.364Z,7.33
2022-12-29T08:00:39.566Z,6.77
2022-12-29T08:03:06.772Z,5.53
2022-12-29T08:05:34.184Z,7.37
2022-12-29T08:08:01.393Z,7.63
2022-12-29T08:10:28.597Z,6.63
2022-12-29T08:12:55.725Z,8.60
2022-12-29T08:15:28.574Z,8.40
2022-12-29T08:17:59.435Z,9.70
2022-12-29T08:20:26.722Z,7.17
2022-12-29T08:22:53.885Z,8.83
2022-12-29T08:25:21.033Z,8.60
2022-12-29T08:27:48.361Z,7.80
2022-12-29T08:30:15.639Z,6.43
2022-12-29T08:32:42.840Z,7.23
2022-12-29T08:35:10.255Z,7.03
2022-12-29T08:37:37.574Z,6.43
2022-12-29T08:40:05.055Z,6.40
2022-12-29T08:42:32.699Z,6.57
2022-12-29T08:45:00.435Z,6.30
2022-12-29T08:47:28.132Z,6.53
2022-12-29T08:49:55.317Z,5.97
2022-12-29T08:52:22.454Z,7.00
2022-12-29T08:54:49.599Z,6.57
2022-12-29T08:57:16.738Z,6.90
2022-12-29T08:59:43.927Z,6.63
2022-12-29T09:02:17.555Z,7.00
2022-12-29T09:04:49.480Z,6.43
2022-12-29T09:07:16.685Z,7.20
2022-12-29T09:09:43.822Z,7.43
2022-12-29T09:12:11.131Z,8.17
2022-12-29T09:14:38.307Z,8.33
2022-12-29T09:17:24.241Z,8.30
2022-12-29T09:19:51.590Z,8.77
2022-12-29T09:22:18.803Z,9.63
2022-12-29T09:24:46.146Z,9.80
2022-12-29T09:27:13.329Z,9.97
2022-12-29T09:29:40.475Z,11.13
2022-12-29T09:32:10.584Z,11.30
2022-12-29T09:34:39.831Z,12.70
2022-12-29T09:37:06.985Z,13.37
2022-12-29T09:39:34.162Z,12.17
2022-12-29T09:42:07.481Z,12.67
2022-12-29T09:44:46.957Z,11.03
2022-12-29T09:47:16.128Z,10.53
2022-12-29T09:49:55.538Z,12.20
2022-12-29T09:52:26.844Z,10.60
2022-12-29T09:55:14.137Z,9.57
2022-12-29T09:58:01.016Z,8.50
2022-12-29T10:00:51.218Z,9.90
2022-12-29T10:03:22.665Z,10.47
2022-12-29T10:05:52.465Z,10.90
2022-12-29T10:08:19.578Z,10.80
2022-12-29T10:10:52.408Z,11.20
2022-12-29T10:13:19.593Z,11.40
2022-12-29T10:16:04.228Z,11.80
2022-12-29T10:18:42.258Z,10.47
2022-12-29T10:21:18.859Z,10.73
2022-12-29T10:23:55.501Z,11.13
2022-12-29T10:26:28.932Z,10.30
2022-12-29T10:29:06.572Z,9.00
2022-12-29T10:32:00.347Z,9.67
2022-12-29T10:34:29.340Z,8.87
2022-12-29T10:37:00.573Z,6.67
2022-12-29T10:39:27.777Z,8.20
2022-12-29T10:42:03.688Z,7.00
2022-12-29T10:44:32.472Z,6.40
2022-12-29T10:47:02.219Z,7.77
2022-12-29T10:49:30.316Z,6.40
2022-12-29T10:51:59.522Z,6.17
2022-12-29T10:54:34.108Z,6.43
2022-12-29T10:57:04.572Z,5.90
2022-12-29T10:59:33.283Z,5.77
2022-12-29T11:02:06.830Z,6.00
2022-12-29T11:04:37.312Z,5.43
2022-12-29T11:07:05.046Z,5.13
2022-12-29T11:09:42.422Z,6.00
2022-12-29T11:12:30.619Z,4.83
2022-12-29T11:15:10.040Z,4.90
2022-12-29T11:17:53.978Z,3.97
2022-12-29T11:20:21.147Z,4.07
2022-12-29T11:22:48.380Z,4.97
2022-12-29T11:25:15.592Z,4.67
2022-12-29T11:27:56.271Z,4.47
2022-12-29T11:30:24.554Z,4.10
2022-12-29T11:32:53.396Z,3.63
2022-12-29T11:35:31.915Z,4.97
2022-12-29T11:37:59.780Z,4.30
2022-12-29T11:40:27.225Z,3.50
2022-12-29T11:42:56.653Z,4.40
2022-12-29T11:45:26.110Z,3.80
2022-12-29T11:48:16.248Z,3.43
2022-12-29T11:50:44.670Z,4.03
2022-12-29T11:53:22.187Z,3.93
2022-12-29T11:55:53.999Z,4.10
2022-12-29T11:58:21.199Z,4.10
2022-12-29T12:00:51.069Z,3.83
2022-12-29T12:03:22.848Z,4.23
2022-12-29T12:05:57.411Z,3.83
2022-12-29T12:08:24.582Z,3.33
2022-12-29T12:10:57.981Z,4.30
2022-12-29T12:13:43.998Z,3.97
2022-12-29T12:16:13.288Z,4.17
2022-12-29T12:18:47.491Z,4.43
2022-12-29T12:21:22.701Z,4.23
2022-12-29T12:23:49.822Z,4.70
2022-12-29T12:26:30.702Z,4.37
2022-12-29T12:29:01.203Z,4.03
2022-12-29T12:31:44.979Z,3.50
2022-12-29T12:34:25.562Z,4.30
2022-12-29T12:37:01.921Z,4.13
2022-12-29T12:39:36.425Z,4.70
2022-12-29T12:42:03.603Z,3.97
2022-12-29T12:44:40.156Z,3.83
2022-12-29T12:47:26.173Z,4.57
2022-12-29T12:49:59.419Z,4.60
2022-12-29T12:52:35.422Z,4.87
2022-12-29T12:55:07.403Z,5.00
2022-12-29T12:57:43.851Z,4.60
2022-12-29T13:00:21.159Z,5.30
2022-12-29T13:02:59.055Z,4.47
2022-12-29T13:05:29.444Z,4.23
2022-12-29T13:08:20.168Z,3.90
2022-12-29T13:10:53.779Z,3.60
2022-12-29T13:13:24.718Z,4.23
2022-12-29T13:16:14.288Z,4.20
2022-12-29T13:18:51.919Z,4.40
2022-12-29T13:21:37.929Z,4.37
2022-12-29T13:24:21.141Z,3.87
2022-12-29T13:27:03.817Z,4.70
2022-12-29T13:29:42.549Z,3.63
2022-12-29T13:32:12.656Z,4.27
2022-12-29T13:34:49.138Z,3.90
2022-12-29T13:37:22.142Z,3.77
2022-12-29T13:39:54.185Z,3.93
2022-12-29T13:42:21.625Z,4.30
2022-12-29T13:44:53.236Z,4.47
2022-12-29T13:47:29.631Z,3.77
2022-12-29T13:49:57.931Z,3.93
2022-12-29T13:52:37.461Z,4.13
2022-12-29T13:55:22.852Z,3.93
2022-12-29T13:57:53.107Z,4.17
2022-12-29T14:00:21.616Z,4.23
2022-12-29T14:02:48.927Z,4.17
2022-12-29T14:05:22.424Z,4.23
2022-12-29T14:07:50.867Z,4.17
2022-12-29T14:10:41.383Z,4.57
2022-12-29T14:13:14.731Z,3.73
2022-12-29T14:15:43.714Z,4.03
2022-12-29T14:18:21.315Z,5.27
2022-12-29T14:20:51.865Z,4.37
2022-12-29T14:23:38.815Z,4.07
2022-12-29T14:26:06.019Z,4.17
2022-12-29T14:28:36.021Z,5.10
2022-12-29T14:31:04.647Z,5.75
2022-12-29T14:33:33.130Z,4.80
2022-12-29T14:36:18.984Z,5.60
2022-12-29T14:38:47.075Z,5.63
2022-12-29T14:41:20.893Z,5.60
2022-12-29T14:44:14.744Z,4.50
2022-12-29T14:46:44.987Z,3.57
2022-12-29T14:49:17.394Z,5.17
2022-12-29T14:51:44.539Z,4.60
2022-12-29T14:54:30.317Z,4.73
2022-12-29T14:57:00.039Z,4.70
2022-12-29T14:59:28.048Z,4.17
2022-12-29T15:01:56.020Z,3.23
2022-12-29T15:04:26.924Z,4.43
2022-12-29T15:06:54.772Z,3.07
2022-12-29T15:09:37.215Z,3.43
2022-12-29T15:12:19.341Z,3.13
2022-12-29T15:14:53.707Z,3.57
2022-12-29T15:17:39.596Z,3.20
2022-12-29T15:20:19.347Z,2.97
2022-12-29T15:22:46.911Z,3.20
2022-12-29T15:25:16.613Z,2.77
2022-12-29T15:27:44.139Z,2.97
2022-12-29T15:30:18.091Z,2.83
2022-12-29T15:32:46.867Z,3.47
2022-12-29T15:35:24.362Z,2.87
2022-12-29T15:37:51.610Z,2.50
2022-12-29T15:40:26.908Z,2.70
2022-12-29T15:43:12.408Z,2.60
2022-12-29T15:45:39.694Z,2.77
2022-12-29T15:48:08.984Z,2.50
2022-12-29T15:50:38.179Z,2.50
2022-12-29T15:53:11.997Z,2.90
2022-12-29T15:55:41.151Z,2.80
2022-12-29T15:58:20.474Z,3.63
2022-12-29T16:00:55.356Z,3.17
2022-12-29T16:03:23.139Z,2.73
2022-12-29T16:05:58.113Z,3.23
2022-12-29T16:08:32.127Z,2.93
2022-12-29T16:10:59.337Z,3.50
2022-12-29T16:13:28.530Z,3.70
2022-12-29T16:15:58.403Z,3.27
2022-12-29T16:18:28.058Z,3.63
2022-12-29T16:20:55.809Z,3.30
2022-12-29T16:23:27.858Z,3.87
2022-12-29T16:25:56.390Z,3.43
2022-12-29T16:28:24.842Z,3.10
2022-12-29T16:31:05.788Z,3.57
2022-12-29T16:33:39.368Z,3.30
2022-12-29T16:36:25.444Z,4.17
2022-12-29T16:38:53.054Z,3.93
2022-12-29T16:41:33.216Z,3.53
2022-12-29T16:44:14.395Z,3.40
2022-12-29T16:46:46.097Z,4.37
2022-12-29T16:49:21.110Z,4.30
2022-12-29T16:51:48.318Z,3.53
2022-12-29T16:54:21.477Z,3.70
2022-12-29T16:56:49.520Z,3.90
2022-12-29T16:59:25.918Z,3.77
2022-12-29T17:01:53.342Z,4.20
2022-12-29T17:04:20.727Z,2.80
2022-12-29T17:06:48.192Z,3.97
2022-12-29T17:09:35.865Z,3.43
2022-12-29T17:12:10.675Z,3.17
2022-12-29T17:14:46.679Z,3.23
2022-12-29T17:17:20.032Z,2.53
2022-12-29T17:19:52.209Z,3.80
2022-12-29T17:22:21.836Z,3.40
2022-12-29T17:24:49.095Z,3.53
2022-12-29T17:27:36.544Z,3.60
2022-12-29T17:30:06.513Z,3.47
2022-12-29T17:32:33.948Z,3.63
2022-12-29T17:35:01.166Z,3.30
2022-12-29T17:37:34.561Z,3.70
2022-12-29T17:40:01.971Z,3.30
2022-12-29T17:42:29.137Z,3.30
2022-12-29T17:44:56.480Z,3.50
2022-12-29T17:47:23.747Z,3.60
2022-12-29T17:49:51.022Z,3.43
2022-12-29T17:52:18.349Z,3.60
2022-12-29T17:54:50.978Z,3.37
2022-12-29T17:57:18.778Z,2.90
2022-12-29T17:59:45.931Z,3.40
2022-12-29T18:02:25.417Z,3.83
2022-12-29T18:04:52.825Z,3.73
2022-12-29T18:07:21.392Z,3.90
2022-12-29T18:09:48.659Z,3.90
2022-12-29T18:12:51.210Z,3.07
2022-12-29T18:15:21.920Z,3.97
2022-12-29T18:17:49.143Z,3.93
2022-12-29T18:20:17.822Z,3.53
2022-12-29T18:22:45.041Z,3.10
2022-12-29T18:25:26.567Z,3.50
2022-12-29T18:27:53.795Z,3.20
2022-12-29T18:30:20.978Z,2.50
2022-12-29T18:32:48.236Z,2.93
2022-12-29T18:35:20.731Z,3.30
2022-12-29T18:37:47.867Z,2.97
2022-12-29T18:40:15.192Z,3.27
2022-12-29T18:42:42.432Z,3.63
2022-12-29T18:45:20.085Z,3.43
2022-12-29T18:47:47.399Z,3.20
2022-12-29T18:50:15.044Z,3.00
2022-12-29T18:52:42.402Z,3.80
2022-12-29T18:55:20.106Z,3.03
2022-12-29T18:57:47.472Z,3.40
2022-12-29T19:00:16.687Z,3.57
2022-12-29T19:02:44.547Z,3.70
2022-12-29T19:05:17.977Z,3.60
2022-12-29T19:07:45.149Z,3.40
2022-12-29T19:10:12.287Z,4.13
2022-12-29T19:12:39.430Z,3.90
2022-12-29T19:15:07.342Z,3.73
2022-12-29T19:17:34.816Z,3.77
2022-12-29T19:20:02.500Z,3.77
2022-12-29T19:22:29.787Z,3.40
2022-12-29T19:25:00.115Z,3.93
2022-12-29T19:27:27.657Z,3.57
2022-12-29T19:29:54.858Z,3.03
2022-12-29T19:32:22.021Z,3.33
2022-12-29T19:34:49.174Z,3.03
2022-12-29T19:37:16.414Z,2.70
2022-12-29T19:39:43.613Z,2.93
2022-12-29T19:42:10.774Z,2.33
2022-12-29T19:44:38.121Z,2.33
2022-12-29T19:47:05.309Z,2.73
2022-12-29T19:49:32.552Z,2.70
2022-12-29T19:51:59.856Z,2.53
2022-12-29T19:54:26.984Z,3.00
2022-12-29T19:56:54.124Z,2.70
2022-12-29T19:59:21.990Z,2.67
2022-12-29T20:01:49.328Z,2.43
2022-12-29T20:04:16.608Z,2.23
2022-12-29T20:06:43.876Z,2.37
2022-12-29T20:09:11.050Z,2.73
2022-12-29T20:11:38.484Z,2.20
2022-12-29T20:14:05.655Z,2.13
2022-12-29T20:16:32.868Z,2.40
2022-12-29T20:19:00.106Z,2.53
2022-12-29T20:21:27.267Z,2.00
2022-12-29T20:23:54.734Z,2.80
2022-12-29T20:26:23.991Z,2.20
2022-12-29T20:28:52.096Z,2.77
2022-12-29T20:31:20.908Z,2.50
2022-12-29T20:33:48.232Z,2.67
2022-12-29T20:36:17.709Z,2.57
2022-12-29T20:38:45.388Z,2.30
2022-12-29T20:41:13.677Z,2.57
2022-12-29T20:43:41.140Z,2.73
2022-12-29T20:46:08.352Z,2.50
2022-12-29T20:48:35.733Z,2.37
2022-12-29T20:51:03.005Z,2.50
2022-12-29T20:53:31.280Z,2.30
2022-12-29T20:56:02.709Z,2.33
2022-12-29T20:58:30.698Z,2.33
2022-12-29T21:01:01.278Z,1.83
2022-12-29T21:03:28.719Z,1.83
2022-12-29T21:05:56.206Z,1.90
2022-12-29T21:08:24.145Z,1.87
2022-12-29T21:10:51.828Z,2.07
2022-12-29T21:13:19.120Z,2.07
2022-12-29T21:15:46.868Z,2.50
2022-12-29T21:18:14.040Z,2.60
2022-12-29T21:20:41.461Z,2.37
2022-12-29T21:23:09.692Z,2.57
2022-12-29T21:25:37.337Z,2.80
2022-12-29T21:28:08.390Z,2.93
2022-12-29T21:30:35.922Z,2.77
2022-12-29T21:33:03.335Z,3.27
2022-12-29T21:35:30.649Z,2.83
2022-12-29T21:37:57.790Z,2.87
2022-12-29T21:40:24.991Z,2.37
2022-12-29T21:42:52.162Z,2.37
2022-12-29T21:45:25.456Z,3.23
2022-12-29T21:48:16.841Z,2.57
2022-12-29T21:51:04.025Z,2.50
2022-12-29T21:53:38.695Z,2.93
2022-12-29T21:56:08.941Z,3.20
2022-12-29T21:58:55.533Z,3.10
2022-12-29T22:01:42.258Z,3.20
2022-12-29T22:04:30.515Z,3.13
2022-12-29T22:07:16.553Z,2.80
2022-12-29T22:10:02.615Z,3.57
2022-12-29T22:12:51.683Z,3.23
2022-12-29T22:15:18.922Z,3.80
2022-12-29T22:17:50.251Z,3.43
2022-12-29T22:20:18.356Z,3.53
2022-12-29T22:22:45.648Z,3.90
2022-12-29T22:25:12.855Z,3.87
2022-12-29T22:27:40.165Z,4.67
2022-12-29T22:30:08.156Z,4.23
2022-12-29T22:32:35.387Z,4.17
2022-12-29T22:35:07.726Z,4.40
2022-12-29T22:37:35.938Z,4.33
2022-12-29T22:40:03.180Z,4.00
2022-12-29T22:42:30.356Z,3.87
2022-12-29T22:44:57.491Z,3.67
2022-12-29T22:47:24.643Z,4.30
2022-12-29T22:49:51.839Z,4.43
2022-12-29T22:52:19.261Z,4.70
2022-12-29T22:54:46.396Z,4.10
2022-12-29T22:57:13.603Z,4.00
2022-12-29T22:59:40.773Z,3.87
2022-12-29T23:02:08.132Z,3.97
2022-12-29T23:05:05.848Z,3.57
2022-12-29T23:07:24.163Z,3.87
2022-12-29T23:09:51.351Z,4.37
2022-12-29T23:12:18.507Z,4.03
2022-12-29T23:14:45.618Z,3.80
2022-12-29T23:17:12.783Z,3.73
2022-12-29T23:19:39.912Z,3.87
2022-12-29T23:22:07.040Z,4.20
2022-12-29T23:24:34.173Z,4.00
2022-12-29T23:27:01.472Z,3.77
2022-12-29T23:29:28.669Z,3.90
2022-12-29T23:31:55.876Z,3.70
2022-12-29T23:34:23.136Z,3.13
2022-12-29T23:36:51.046Z,3.80
2022-12-29T23:39:20.162Z,3.70
2022-12-29T23:41:47.489Z,3.50
2022-12-29T23:44:14.712Z,3.80
2022-12-29T23:46:42.081Z,3.53
2022-12-29T23:49:10.246Z,4.13
2022-12-29T23:51:37.395Z,3.50
2022-12-29T23:54:04.809Z,3.60
2022-12-29T23:56:32.451Z,3.83
2022-12-29T23:58:59.592Z,3.37
